createdAt,value
2023-06-19T00:02:44.166Z,100510.50
2023-06-19T00:05:45.967Z,100499.69
2023-06-19T00:08:47.656Z,100510.31
2023-06-19T00:11:49.376Z,100500.66
2023-06-19T00:14:50.970Z,100500.78
2023-06-19T00:17:52.868Z,100492.31
2023-06-19T00:20:57.156Z,100502.97
2023-06-19T00:23:58.858Z,100497.06
2023-06-19T00:27:04.074Z,100505.38
2023-06-19T00:30:07.134Z,100513.97
2023-06-19T00:33:09.799Z,100499.09
2023-06-19T00:36:12.490Z,100510.75
2023-06-19T00:39:14.107Z,100503.91
2023-06-19T00:42:15.763Z,100497.59
2023-06-19T00:45:17.341Z,100500.75
2023-06-19T00:48:19.098Z,100499.41
2023-06-19T00:51:20.712Z,100497.41
2023-06-19T00:54:22.924Z,100501.25
2023-06-19T00:57:24.542Z,100500.22
2023-06-19T01:00:26.348Z,100506.44
2023-06-19T01:03:28.180Z,100508.00
2023-06-19T01:06:39.543Z,100499.50
2023-06-19T01:09:49.668Z,100490.06
2023-06-19T01:12:59.953Z,100488.25
2023-06-19T01:16:03.867Z,100488.13
2023-06-19T01:19:10.905Z,100492.13
2023-06-19T01:22:22.984Z,100502.25
2023-06-19T01:25:25.522Z,100497.72
2023-06-19T01:28:27.394Z,100487.75
2023-06-19T01:31:34.810Z,100498.53
2023-06-19T01:34:40.924Z,100485.56
2023-06-19T01:37:44.003Z,100484.72
2023-06-19T01:40:46.477Z,100482.72
2023-06-19T01:43:48.780Z,100472.84
2023-06-19T01:46:51.997Z,100473.88
2023-06-19T01:49:53.878Z,100468.53
2023-06-19T01:52:56.932Z,100472.03
2023-06-19T01:55:59.943Z,100468.19
2023-06-19T01:59:01.571Z,100474.34
2023-06-19T02:02:05.169Z,100481.16
2023-06-19T02:05:07.067Z,100474.53
2023-06-19T02:08:08.915Z,100473.03
2023-06-19T02:11:10.624Z,100476.66
2023-06-19T02:14:12.597Z,100477.66
2023-06-19T02:17:14.254Z,100481.63
2023-06-19T02:20:16.548Z,100491.59
2023-06-19T02:23:18.168Z,100485.44
2023-06-19T02:26:19.749Z,100484.50
2023-06-19T02:29:21.589Z,100490.50
2023-06-19T02:32:23.269Z,100495.16
2023-06-19T02:35:24.890Z,100497.13
2023-06-19T02:38:27.163Z,100485.19
2023-06-19T02:41:28.735Z,100492.97
2023-06-19T02:44:30.295Z,100499.72
2023-06-19T02:47:34.903Z,100501.25
2023-06-19T02:50:36.601Z,100504.28
2023-06-19T02:53:38.229Z,100508.06
2023-06-19T02:56:40.041Z,100506.06
2023-06-19T02:59:41.847Z,100492.06
2023-06-19T03:02:45.312Z,100498.41
2023-06-19T03:05:47.030Z,100499.56
2023-06-19T03:08:48.681Z,100500.88
2023-06-19T03:11:50.302Z,100496.38
2023-06-19T03:14:51.973Z,100501.25
2023-06-19T03:17:54.547Z,100497.75
2023-06-19T03:20:56.227Z,100494.44
2023-06-19T03:23:58.091Z,100507.56
2023-06-19T03:26:59.682Z,100496.44
2023-06-19T03:30:01.449Z,100500.41
2023-06-19T03:33:03.116Z,100508.06
2023-06-19T03:36:05.244Z,100504.72
2023-06-19T03:39:07.014Z,100508.72
2023-06-19T03:42:09.199Z,100507.53
2023-06-19T03:45:11.079Z,100508.81
2023-06-19T03:48:12.932Z,100511.25
2023-06-19T03:51:14.602Z,100507.88
2023-06-19T03:54:16.180Z,100503.78
2023-06-19T03:57:17.853Z,100509.59
2023-06-19T04:00:19.863Z,100515.78
2023-06-19T04:03:21.835Z,100516.00
2023-06-19T04:06:23.936Z,100514.25
2023-06-19T04:09:26.071Z,100515.34
2023-06-19T04:12:27.696Z,100520.16
2023-06-19T04:15:29.357Z,100512.34
2023-06-19T04:18:30.993Z,100515.09
2023-06-19T04:21:32.604Z,100512.63
2023-06-19T04:24:34.511Z,100523.22
2023-06-19T04:27:36.257Z,100519.53
2023-06-19T04:30:40.483Z,100519.25
2023-06-19T04:33:43.112Z,100526.97
2023-06-19T04:36:45.628Z,100521.44
2023-06-19T04:39:47.599Z,100519.13
2023-06-19T04:42:49.261Z,100524.75
2023-06-19T04:45:50.895Z,100522.00
2023-06-19T04:48:52.553Z,100520.75
2023-06-19T04:51:54.197Z,100524.41
2023-06-19T04:54:55.783Z,100528.63
2023-06-19T04:57:57.453Z,100523.31
2023-06-19T05:00:59.110Z,100524.34
2023-06-19T05:04:00.866Z,100510.38
2023-06-19T05:07:03.228Z,100523.84
2023-06-19T05:10:05.498Z,100532.47
2023-06-19T05:13:07.187Z,100533.84
2023-06-19T05:16:08.886Z,100540.56
2023-06-19T05:19:10.595Z,100544.53
2023-06-19T05:22:12.245Z,100551.03
2023-06-19T05:25:13.987Z,100555.13
2023-06-19T05:28:15.589Z,100545.50
2023-06-19T05:31:17.241Z,100547.84
2023-06-19T05:34:18.872Z,100544.00
2023-06-19T05:37:20.522Z,100557.22
2023-06-19T05:40:22.424Z,100554.09
2023-06-19T05:43:25.782Z,100555.53
2023-06-19T05:46:27.393Z,100560.09
2023-06-19T05:49:29.000Z,100540.22
2023-06-19T05:52:30.679Z,100552.38
2023-06-19T05:55:32.352Z,100557.06
2023-06-19T05:58:34.073Z,100560.31
2023-06-19T06:01:35.956Z,100562.13
2023-06-19T06:04:37.950Z,100560.22
2023-06-19T06:07:41.409Z,100566.06
2023-06-19T06:10:44.566Z,100565.25
2023-06-19T06:13:46.197Z,100557.44
2023-06-19T06:16:47.867Z,100570.81
2023-06-19T06:19:49.582Z,100580.31
2023-06-19T06:22:51.324Z,100574.16
2023-06-19T06:25:53.105Z,100573.97
2023-06-19T06:28:55.769Z,100573.06
2023-06-19T06:32:08.445Z,100580.06
2023-06-19T06:35:10.354Z,100593.84
2023-06-19T06:38:12.344Z,100588.06
2023-06-19T06:41:14.007Z,100586.72
2023-06-19T06:44:15.572Z,100594.44
2023-06-19T06:47:17.164Z,100594.13
2023-06-19T06:50:18.762Z,100590.69
2023-06-19T06:53:20.372Z,100593.44
2023-06-19T06:56:21.966Z,100595.72
2023-06-19T06:59:24.170Z,100590.72
2023-06-19T07:02:28.421Z,100591.50
2023-06-19T07:05:31.103Z,100591.63
2023-06-19T07:08:32.739Z,100587.69
2023-06-19T07:11:34.477Z,100579.63
2023-06-19T07:14:36.062Z,100581.25
2023-06-19T07:17:37.740Z,100573.56
2023-06-19T07:20:39.390Z,100583.69
2023-06-19T07:23:42.084Z,100581.63
2023-06-19T07:26:43.732Z,100579.59
2023-06-19T07:29:45.430Z,100578.63
2023-06-19T07:32:47.290Z,100568.00
2023-06-19T07:35:48.991Z,100576.47
2023-06-19T07:38:50.682Z,100575.81
2023-06-19T07:41:52.259Z,100560.81
2023-06-19T07:44:53.823Z,100572.63
2023-06-19T07:47:57.156Z,100578.69
2023-06-19T07:50:58.845Z,100568.84
2023-06-19T07:54:00.546Z,100573.13
2023-06-19T07:57:02.644Z,100571.22
2023-06-19T08:00:23.525Z,100575.81
2023-06-19T08:03:25.475Z,100575.94
2023-06-19T08:06:27.252Z,100571.78
2023-06-19T08:09:28.830Z,100563.06
2023-06-19T08:12:30.869Z,100559.03
2023-06-19T08:15:33.054Z,100569.34
2023-06-19T08:18:34.686Z,100565.34
2023-06-19T08:21:36.263Z,100549.94
2023-06-19T08:24:40.134Z,100567.13
2023-06-19T08:27:43.106Z,100567.03
2023-06-19T08:30:46.792Z,100558.97
2023-06-19T08:33:53.875Z,100563.25
2023-06-19T08:36:56.534Z,100548.03
2023-06-19T08:39:58.140Z,100555.41
2023-06-19T08:42:59.916Z,100560.88
2023-06-19T08:46:12.214Z,100561.38
2023-06-19T08:49:14.695Z,100552.66
2023-06-19T08:52:16.289Z,100550.72
2023-06-19T08:55:18.010Z,100552.91
2023-06-19T08:58:24.218Z,100548.34
2023-06-19T09:01:27.945Z,100551.97
2023-06-19T09:04:29.753Z,100550.34
2023-06-19T09:07:31.660Z,100546.78
2023-06-19T09:10:33.396Z,100547.22
2023-06-19T09:13:36.271Z,100544.56
2023-06-19T09:16:42.738Z,100548.41
2023-06-19T09:19:51.752Z,100540.56
2023-06-19T09:22:58.923Z,100539.09
2023-06-19T09:26:00.556Z,100543.66
2023-06-19T09:29:19.519Z,100546.03
2023-06-19T09:32:28.045Z,100539.22
2023-06-19T09:35:29.652Z,100541.13
2023-06-19T09:38:40.088Z,100537.81
2023-06-19T09:41:43.470Z,100542.50
2023-06-19T09:44:48.849Z,100538.47
2023-06-19T09:47:54.733Z,100538.91
2023-06-19T09:51:06.615Z,100541.25
2023-06-19T09:54:10.664Z,100544.59
2023-06-19T09:57:12.284Z,100533.81
2023-06-19T10:00:17.178Z,100526.03
2023-06-19T10:03:19.226Z,100515.97
2023-06-19T10:06:23.430Z,100518.00
2023-06-19T10:09:25.047Z,100519.50
2023-06-19T10:12:44.563Z,100502.66
2023-06-19T10:15:46.179Z,100506.66
2023-06-19T10:18:48.367Z,100506.31
2023-06-19T10:21:52.548Z,100506.31
2023-06-19T10:24:54.294Z,100498.84
2023-06-19T10:27:56.173Z,100495.59
2023-06-19T10:31:02.974Z,100486.94
2023-06-19T10:34:05.093Z,100492.94
2023-06-19T10:37:06.805Z,100491.28
2023-06-19T10:40:10.876Z,100480.50
2023-06-19T10:43:29.154Z,100482.91
2023-06-19T10:46:36.875Z,100475.47
2023-06-19T10:49:38.670Z,100484.94
2023-06-19T10:52:45.001Z,100484.13
2023-06-19T10:55:46.645Z,100481.31
2023-06-19T10:58:48.383Z,100481.53
2023-06-19T11:01:51.723Z,100478.88
2023-06-19T11:04:55.579Z,100474.81
2023-06-19T11:07:59.679Z,100475.09
2023-06-19T11:11:01.320Z,100480.66
2023-06-19T11:14:03.354Z,100477.16
2023-06-19T11:17:05.384Z,100475.47
2023-06-19T11:20:11.802Z,100482.94
2023-06-19T11:23:14.245Z,100478.47
2023-06-19T11:26:15.840Z,100478.91
2023-06-19T11:29:19.618Z,100461.63
2023-06-19T11:32:25.997Z,100462.16
2023-06-19T11:35:35.598Z,100465.38
2023-06-19T11:38:39.414Z,100460.03
2023-06-19T11:41:42.501Z,100461.25
2023-06-19T11:45:13.477Z,100455.16
2023-06-19T11:48:15.198Z,100443.75
2023-06-19T11:51:16.856Z,100447.38
2023-06-19T11:54:24.629Z,100440.16
2023-06-19T11:57:28.057Z,100436.16
2023-06-19T12:00:30.038Z,100446.34
2023-06-19T12:03:31.771Z,100448.84
2023-06-19T12:06:33.628Z,100448.53
2023-06-19T12:09:35.690Z,100435.97
2023-06-19T12:12:39.030Z,100438.16
2023-06-19T12:15:40.605Z,100432.34
2023-06-19T12:18:42.983Z,100433.09
2023-06-19T12:21:44.632Z,100432.28
2023-06-19T12:24:46.268Z,100414.53
2023-06-19T12:27:48.711Z,100413.84
2023-06-19T12:30:54.098Z,100424.09
2023-06-19T12:33:56.966Z,100417.00
2023-06-19T12:37:05.938Z,100404.97
2023-06-19T12:40:11.925Z,100410.28
2023-06-19T12:43:13.468Z,100419.72
2023-06-19T12:46:15.359Z,100408.06
2023-06-19T12:49:17.112Z,100398.59
2023-06-19T12:52:18.819Z,100408.47
2023-06-19T12:55:20.463Z,100394.28
2023-06-19T12:58:22.135Z,100397.31
2023-06-19T13:01:23.788Z,100384.19
2023-06-19T13:04:25.478Z,100384.22
2023-06-19T13:07:27.090Z,100389.72
2023-06-19T13:10:28.730Z,100375.13
2023-06-19T13:13:30.392Z,100384.19
2023-06-19T13:16:45.439Z,100378.44
2023-06-19T13:19:48.027Z,100377.56
2023-06-19T13:22:49.645Z,100378.06
2023-06-19T13:25:51.251Z,100370.84
2023-06-19T13:28:53.114Z,100379.09
2023-06-19T13:31:54.772Z,100377.34
2023-06-19T13:34:57.254Z,100372.16
2023-06-19T13:37:58.866Z,100372.91
2023-06-19T13:41:00.510Z,100371.16
2023-06-19T13:44:02.599Z,100362.31
2023-06-19T13:47:04.906Z,100369.75
2023-06-19T13:50:08.044Z,100360.81
2023-06-19T13:53:09.930Z,100369.03
2023-06-19T13:56:12.471Z,100374.50
2023-06-19T13:59:14.779Z,100367.28
2023-06-19T14:02:16.471Z,100365.53
2023-06-19T14:05:18.287Z,100369.59
2023-06-19T14:08:19.937Z,100365.09
2023-06-19T14:11:21.924Z,100374.13
2023-06-19T14:14:23.621Z,100379.09
2023-06-19T14:17:25.629Z,100364.41
2023-06-19T14:20:27.437Z,100367.78
2023-06-19T14:23:29.149Z,100367.16
2023-06-19T14:26:30.758Z,100366.09
2023-06-19T14:29:38.849Z,100366.34
2023-06-19T14:32:40.555Z,100362.06
2023-06-19T14:35:45.837Z,100366.28
2023-06-19T14:38:47.504Z,100360.56
2023-06-19T14:41:49.154Z,100365.16
2023-06-19T14:44:50.854Z,100355.16
2023-06-19T14:47:52.536Z,100351.75
2023-06-19T14:50:54.187Z,100344.03
2023-06-19T14:53:56.001Z,100356.50
2023-06-19T14:56:57.755Z,100342.78
2023-06-19T14:59:59.401Z,100345.75
2023-06-19T15:03:01.221Z,100340.81
2023-06-19T15:06:03.743Z,100339.56
2023-06-19T15:09:05.681Z,100342.38
2023-06-19T15:12:07.724Z,100341.00
2023-06-19T15:15:09.774Z,100341.44
2023-06-19T15:18:11.583Z,100346.09
2023-06-19T15:21:13.306Z,100348.19
2023-06-19T15:24:15.307Z,100346.06
2023-06-19T15:27:16.886Z,100344.09
2023-06-19T15:30:18.533Z,100350.75
2023-06-19T15:33:20.190Z,100345.84
2023-06-19T15:36:21.878Z,100342.28
2023-06-19T15:39:23.474Z,100342.97
2023-06-19T15:42:25.154Z,100345.03
2023-06-19T15:45:26.932Z,100332.72
2023-06-19T15:48:29.475Z,100336.47
2023-06-19T15:51:31.192Z,100333.00
2023-06-19T15:54:32.858Z,100336.50
2023-06-19T15:57:34.763Z,100331.41
2023-06-19T16:00:36.476Z,100333.31
2023-06-19T16:03:38.207Z,100326.25
2023-06-19T16:06:40.992Z,100335.63
2023-06-19T16:09:54.470Z,100334.06
2023-06-19T16:12:57.016Z,100330.34
2023-06-19T16:15:58.821Z,100334.81
2023-06-19T16:19:00.538Z,100328.91
2023-06-19T16:22:02.498Z,100328.88
2023-06-19T16:25:04.595Z,100337.66
2023-06-19T16:28:06.460Z,100327.34
2023-06-19T16:31:09.283Z,100333.31
2023-06-19T16:34:10.989Z,100325.41
2023-06-19T16:37:12.751Z,100340.34
2023-06-19T16:40:14.402Z,100333.72
2023-06-19T16:43:16.076Z,100335.13
2023-06-19T16:46:17.872Z,100334.22
2023-06-19T16:49:20.173Z,100339.31
2023-06-19T16:52:23.364Z,100333.50
2023-06-19T16:55:25.587Z,100338.16
2023-06-19T16:58:27.342Z,100337.78
2023-06-19T17:01:28.975Z,100335.44
2023-06-19T17:04:30.573Z,100336.78
2023-06-19T17:07:32.232Z,100332.84
2023-06-19T17:10:33.911Z,100331.94
2023-06-19T17:13:35.525Z,100340.75
2023-06-19T17:16:37.169Z,100326.50
2023-06-19T17:19:39.313Z,100335.22
2023-06-19T17:22:40.916Z,100330.78
2023-06-19T17:25:42.596Z,100341.28
2023-06-19T17:28:44.210Z,100344.09
2023-06-19T17:31:45.827Z,100338.53
2023-06-19T17:34:47.473Z,100348.16
2023-06-19T17:37:49.110Z,100348.13
2023-06-19T17:40:50.753Z,100351.19
2023-06-19T17:43:52.409Z,100353.44
2023-06-19T17:46:54.148Z,100352.69
2023-06-19T17:49:55.920Z,100355.72
2023-06-19T17:52:57.558Z,100353.06
2023-06-19T17:56:01.725Z,100363.69
2023-06-19T17:59:03.622Z,100358.44
2023-06-19T18:02:05.569Z,100359.72
2023-06-19T18:05:07.584Z,100357.38
2023-06-19T18:08:09.704Z,100363.03
2023-06-19T18:11:11.322Z,100365.19
2023-06-19T18:14:12.957Z,100376.25
2023-06-19T18:17:14.944Z,100379.22
2023-06-19T18:20:16.777Z,100377.19
2023-06-19T18:23:18.485Z,100371.75
2023-06-19T18:26:20.177Z,100367.94
2023-06-19T18:29:22.123Z,100371.75
2023-06-19T18:32:23.827Z,100376.91
2023-06-19T18:35:25.458Z,100372.28
2023-06-19T18:38:27.114Z,100373.13
2023-06-19T18:41:28.772Z,100386.50
2023-06-19T18:44:30.486Z,100380.00
2023-06-19T18:47:32.067Z,100390.28
2023-06-19T18:50:33.901Z,100385.25
2023-06-19T18:53:35.518Z,100395.28
2023-06-19T18:56:38.231Z,100387.97
2023-06-19T18:59:39.829Z,100391.53
2023-06-19T19:02:41.679Z,100389.19
2023-06-19T19:05:43.531Z,100407.28
2023-06-19T19:08:45.331Z,100411.91
2023-06-19T19:11:49.384Z,100415.06
2023-06-19T19:14:52.286Z,100417.91
2023-06-19T19:17:54.011Z,100418.34
2023-06-19T19:20:55.673Z,100425.59
2023-06-19T19:23:57.460Z,100423.00
2023-06-19T19:26:59.251Z,100423.97
2023-06-19T19:30:00.961Z,100423.38
2023-06-19T19:33:02.725Z,100434.16
2023-06-19T19:36:05.868Z,100431.66
2023-06-19T19:39:07.467Z,100442.06
2023-06-19T19:42:09.297Z,100446.47
2023-06-19T19:45:11.246Z,100449.44
2023-06-19T19:48:12.938Z,100446.22
2023-06-19T19:51:15.450Z,100452.00
2023-06-19T19:54:17.141Z,100452.78
2023-06-19T19:57:18.798Z,100455.25
2023-06-19T20:00:20.450Z,100462.16
2023-06-19T20:03:22.217Z,100465.38
2023-06-19T20:06:23.987Z,100464.09
2023-06-19T20:09:25.606Z,100454.22
2023-06-19T20:12:27.488Z,100454.38
2023-06-19T20:15:29.116Z,100458.97
2023-06-19T20:18:30.814Z,100456.16
2023-06-19T20:21:32.515Z,100453.97
2023-06-19T20:24:34.668Z,100462.84
2023-06-19T20:27:36.446Z,100453.22
2023-06-19T20:30:38.688Z,100466.88
2023-06-19T20:33:40.320Z,100471.84
2023-06-19T20:36:41.914Z,100463.13
2023-06-19T20:39:43.534Z,100462.88
2023-06-19T20:42:45.155Z,100470.16
2023-06-19T20:45:46.768Z,100469.78
2023-06-19T20:48:48.449Z,100476.75
2023-06-19T20:51:51.537Z,100483.72
2023-06-19T20:54:53.149Z,100484.59
2023-06-19T20:57:54.867Z,100491.03
2023-06-19T21:00:56.641Z,100487.13
2023-06-19T21:04:02.532Z,100495.03
2023-06-19T21:07:04.460Z,100495.66
2023-06-19T21:10:06.558Z,100498.81
2023-06-19T21:13:21.950Z,100499.25
2023-06-19T21:16:25.609Z,100494.50
2023-06-19T21:19:27.355Z,100496.94
2023-06-19T21:22:28.969Z,100495.91
2023-06-19T21:25:30.710Z,100499.88
2023-06-19T21:28:33.039Z,100502.81
2023-06-19T21:31:34.713Z,100500.31
2023-06-19T21:34:36.342Z,100506.75
2023-06-19T21:37:37.950Z,100507.97
2023-06-19T21:40:39.614Z,100512.34
2023-06-19T21:43:41.247Z,100503.88
2023-06-19T21:46:43.055Z,100516.31
2023-06-19T21:49:44.726Z,100507.22
2023-06-19T21:52:46.595Z,100509.28
2023-06-19T21:55:49.406Z,100512.41
2023-06-19T21:58:51.008Z,100511.78
2023-06-19T22:01:52.625Z,100504.53
2023-06-19T22:04:54.261Z,100502.28
2023-06-19T22:07:56.252Z,100514.06
2023-06-19T22:10:57.992Z,100520.84
2023-06-19T22:14:01.200Z,100516.91
2023-06-19T22:17:04.896Z,100505.75
2023-06-19T22:20:09.335Z,100516.69
2023-06-19T22:23:11.105Z,100519.16
2023-06-19T22:26:12.962Z,100513.38
2023-06-19T22:29:14.641Z,100516.28
2023-06-19T22:32:16.245Z,100512.16
2023-06-19T22:35:17.920Z,100516.69
2023-06-19T22:38:19.780Z,100516.25
2023-06-19T22:41:21.842Z,100509.66
2023-06-19T22:44:23.701Z,100511.31
2023-06-19T22:47:25.370Z,100512.75
2023-06-19T22:50:27.040Z,100516.00
2023-06-19T22:53:31.436Z,100503.00
2023-06-19T22:56:33.923Z,100505.06
2023-06-19T22:59:35.797Z,100512.50
2023-06-19T23:02:37.505Z,100512.72
2023-06-19T23:05:39.155Z,100511.25
2023-06-19T23:08:41.248Z,100507.31
2023-06-19T23:11:43.113Z,100512.22
2023-06-19T23:14:44.736Z,100504.34
2023-06-19T23:17:46.454Z,100500.31
2023-06-19T23:20:48.156Z,100507.56
2023-06-19T23:23:50.008Z,100508.38
2023-06-19T23:26:51.590Z,100520.97
2023-06-19T23:29:53.260Z,100504.84
2023-06-19T23:32:54.972Z,100504.81
2023-06-19T23:35:57.640Z,100507.41
2023-06-19T23:38:59.489Z,100509.75
2023-06-19T23:42:03.954Z,100503.47
2023-06-19T23:45:06.092Z,100505.34
2023-06-19T23:48:07.752Z,100502.81
2023-06-19T23:51:09.435Z,100504.00
2023-06-19T23:54:11.086Z,100500.84
2023-06-19T23:57:12.697Z,100498.78
